Time;durP1;ratioP1;P1;durP2;ratioP2;P2;SDS_P1;SDS_P2;PMS_P1;PMS_P2;Temp;Humidity;BMP_temperature;BMP_pressure;BME280_temperature;BME280_humidity;BME280_pressure;Samples;Min_cycle;Max_cycle;Signal;HPM_P1;HPM_P2
2022/11/02 00:02:22;;;;;;;1.70;0.80;;;7.20;18.70;;;;;;5078438;28;20481;-68
2022/11/02 00:04:48;;;;;;;1.30;0.70;;;7.10;8.70;;;;;;5066479;28;20423;-68
2022/11/02 00:07:15;;;;;;;0.50;0.50;;;7.10;9.90;;;;;;5062366;28;20436;-68
2022/11/02 00:09:43;;;;;;;1.10;0.70;;;7.10;39.70;;;;;;5060471;28;20439;-68
2022/11/02 00:12:09;;;;;;;2.20;0.60;;;7.20;59.10;;;;;;5065109;28;20452;-68
2022/11/02 00:14:36;;;;;;;0.65;0.65;;;7.20;64.50;;;;;;5068606;28;20431;-67
2022/11/02 00:17:03;;;;;;;0.30;0.30;;;7.10;67.90;;;;;;5060908;28;20518;-68
2022/11/02 00:19:30;;;;;;;2.15;0.63;;;7.10;68.50;;;;;;5057042;28;20423;-68
2022/11/02 00:21:57;;;;;;;0.95;0.65;;;7.10;90.50;;;;;;5048404;28;21044;-68
2022/11/02 00:24:24;;;;;;;0.50;0.50;;;7.10;93.70;;;;;;5059023;28;20421;-68
2022/11/02 00:26:52;;;;;;;0.30;0.30;;;7.10;97.80;;;;;;5060769;28;20438;-69
2022/11/02 00:29:20;;;;;;;0.50;0.50;;;7.10;91.30;;;;;;5062835;28;20435;-68
2022/11/02 00:31:50;;;;;;;0.80;0.80;;;7.00;77.80;;;;;;5054081;28;20446;-68
2022/11/02 00:34:17;;;;;;;0.55;0.55;;;7.00;69.20;;;;;;5060197;28;20437;-68
2022/11/02 00:36:44;;;;;;;0.50;0.50;;;6.90;77.40;;;;;;5056797;28;20491;-68
2022/11/02 00:39:13;;;;;;;0.77;0.47;;;6.90;78.70;;;;;;5058819;28;20435;-68
2022/11/02 00:41:40;;;;;;;0.50;0.50;;;6.90;83.60;;;;;;5078953;28;20437;-68
2022/11/02 00:44:07;;;;;;;0.50;0.50;;;6.90;81.70;;;;;;5060365;28;20427;-68
2022/11/02 00:46:37;;;;;;;0.45;0.45;;;7.00;90.70;;;;;;5066730;28;20468;-68
2022/11/02 00:49:04;;;;;;;0.57;0.57;;;7.00;97.00;;;;;;5068578;28;20427;-68
2022/11/02 00:51:31;;;;;;;0.50;0.50;;;7.10;98.90;;;;;;5056312;28;20432;-68
2022/11/02 00:53:58;;;;;;;0.38;0.38;;;7.00;97.70;;;;;;5058700;28;20432;-68
2022/11/02 00:56:24;;;;;;;0.40;0.40;;;7.00;96.70;;;;;;5066839;28;20945;-68
2022/11/02 00:58:51;;;;;;;0.50;0.50;;;7.00;92.70;;;;;;5064988;28;20431;-68
2022/11/02 01:01:18;;;;;;;0.98;0.80;;;6.90;92.70;;;;;;5057665;28;20436;-68
2022/11/02 01:03:45;;;;;;;1.20;0.65;;;6.90;93.40;;;;;;5067014;28;20432;-68
2022/11/02 01:06:14;;;;;;;0.38;0.38;;;6.90;94.80;;;;;;5062768;28;20990;-68
2022/11/02 01:08:41;;;;;;;0.70;0.70;;;6.90;99.20;;;;;;5068856;28;20423;-69
2022/11/02 01:11:16;;;;;;;0.63;0.63;;;6.90;99.90;;;;;;5064823;28;20427;-68
2022/11/02 01:13:44;;;;;;;3.88;0.82;;;6.90;99.90;;;;;;5061148;28;20498;-68
2022/11/02 01:16:12;;;;;;;0.40;0.40;;;6.90;99.90;;;;;;5065178;28;20425;-69
2022/11/02 01:18:39;;;;;;;0.57;0.57;;;6.80;98.20;;;;;;5064461;28;20437;-68
2022/11/02 01:21:07;;;;;;;0.52;0.52;;;6.80;97.10;;;;;;5066101;28;20427;-68
2022/11/02 01:23:36;;;;;;;1.38;0.50;;;6.70;94.80;;;;;;5060784;28;20454;-68
2022/11/02 01:26:09;;;;;;;0.40;0.40;;;6.60;93.30;;;;;;5068004;28;20427;-68
2022/11/02 01:28:36;;;;;;;0.43;0.43;;;6.60;96.20;;;;;;5052790;28;20945;-68
2022/11/02 01:31:03;;;;;;;1.98;0.70;;;6.40;97.10;;;;;;5061062;28;20903;-69
2022/11/02 01:33:32;;;;;;;1.55;0.60;;;6.40;94.40;;;;;;5064417;28;20450;-68
2022/11/02 01:36:02;;;;;;;1.13;0.63;;;6.40;96.30;;;;;;5065773;28;20456;-68
2022/11/02 01:38:30;;;;;;;0.50;0.50;;;6.40;98.20;;;;;;5070480;28;20435;-68
2022/11/02 01:40:57;;;;;;;1.40;0.40;;;6.40;99.90;;;;;;5061400;28;20420;-68
2022/11/02 01:43:30;;;;;;;0.75;0.75;;;6.40;99.90;;;;;;5051261;28;20516;-68
2022/11/02 01:46:11;;;;;;;0.50;0.50;;;6.40;99.90;;;;;;5063539;28;20678;-69
2022/11/02 01:48:49;;;;;;;0.45;0.45;;;6.30;99.90;;;;;;5054867;28;20450;-68
2022/11/02 01:51:25;;;;;;;0.40;0.40;;;6.20;99.90;;;;;;5064446;28;20450;-69
2022/11/02 01:53:55;;;;;;;0.70;0.70;;;6.10;99.90;;;;;;5064148;28;20431;-68
2022/11/02 01:56:24;;;;;;;0.50;0.50;;;6.10;99.90;;;;;;5061516;28;20800;-69
2022/11/02 01:58:56;;;;;;;1.10;0.63;;;6.10;99.90;;;;;;5065129;28;20431;-69
2022/11/02 02:01:23;;;;;;;3.53;0.80;;;6.10;99.90;;;;;;5065636;28;20477;-68
2022/11/02 02:03:51;;;;;;;1.40;0.82;;;6.10;99.90;;;;;;5061427;28;20506;-69
2022/11/02 02:06:24;;;;;;;5.50;0.82;;;6.10;99.90;;;;;;5064888;28;20431;-68
2022/11/02 02:08:53;;;;;;;0.90;0.90;;;6.20;99.90;;;;;;5061355;28;20454;-69
2022/11/02 02:11:25;;;;;;;0.80;0.80;;;6.20;99.90;;;;;;5063832;28;20927;-69
2022/11/02 02:14:13;;;;;;;0.82;0.82;;;6.20;99.90;;;;;;5060530;28;20433;-68
2022/11/02 02:17:02;;;;;;;1.25;0.70;;;6.30;99.90;;;;;;5060272;28;21265;-69
2022/11/02 02:19:57;;;;;;;0.40;0.40;;;6.30;99.90;;;;;;5057633;28;20445;-69
2022/11/02 02:22:41;;;;;;;1.63;1.20;;;6.20;99.90;;;;;;5062304;28;20436;-68
2022/11/02 02:25:23;;;;;;;0.52;0.52;;;6.20;99.90;;;;;;5061799;28;20431;-68
2022/11/02 02:27:56;;;;;;;0.82;0.82;;;6.20;99.90;;;;;;5060791;28;20434;-69
2022/11/02 02:30:23;;;;;;;3.10;0.77;;;6.20;99.90;;;;;;5066260;28;20431;-68
2022/11/02 02:33:14;;;;;;;1.02;0.90;;;6.30;99.90;;;;;;5061471;28;20435;-69
2022/11/02 02:35:44;;;;;;;1.00;0.60;;;6.30;99.90;;;;;;5057605;28;21121;-69
2022/11/02 02:38:18;;;;;;;3.80;0.90;;;6.30;99.90;;;;;;5057964;28;20429;-68
2022/11/02 02:40:51;;;;;;;0.80;0.80;;;6.30;99.90;;;;;;5058822;28;20425;-69
2022/11/02 02:43:23;;;;;;;1.58;1.13;;;6.40;99.90;;;;;;5059301;28;20437;-69
2022/11/02 02:46:00;;;;;;;1.60;0.90;;;6.40;99.90;;;;;;5058642;28;20435;-68
2022/11/02 02:48:29;;;;;;;0.70;0.70;;;6.30;99.90;;;;;;5056022;28;20452;-68
2022/11/02 02:51:04;;;;;;;1.40;0.70;;;6.40;99.90;;;;;;5064909;28;20436;-68
2022/11/02 02:54:06;;;;;;;2.60;0.80;;;6.40;99.90;;;;;;5067481;28;20838;-68
2022/11/02 02:56:47;;;;;;;0.68;0.68;;;6.40;99.90;;;;;;5021905;28;20923;-69
2022/11/02 02:59:21;;;;;;;0.90;0.65;;;6.40;99.90;;;;;;5024505;28;20431;-68
2022/11/02 03:01:48;;;;;;;2.72;0.57;;;6.40;99.90;;;;;;5030205;28;20508;-69
2022/11/02 03:04:17;;;;;;;1.60;0.95;;;6.40;99.90;;;;;;5025336;28;20439;-69
2022/11/02 03:06:48;;;;;;;0.80;0.80;;;6.50;99.90;;;;;;5024158;28;20426;-68
2022/11/02 03:09:20;;;;;;;0.70;0.70;;;6.50;99.90;;;;;;5032154;28;20431;-69
2022/11/02 03:12:23;;;;;;;0.73;0.73;;;6.50;99.90;;;;;;5023792;28;20434;-69
2022/11/02 03:15:11;;;;;;;0.80;0.80;;;6.60;99.90;;;;;;5022516;28;20437;-68
2022/11/02 03:18:10;;;;;;;1.07;0.80;;;6.70;99.90;;;;;;5033679;28;20435;-72
2022/11/02 03:21:16;;;;;;;2.72;2.00;;;6.70;99.90;;;;;;5006476;28;20581;-68
2022/11/02 03:23:51;;;;;;;0.57;0.57;;;6.80;99.90;;;;;;5000434;28;20438;-68
2022/11/02 03:26:33;;;;;;;0.90;0.90;;;6.90;99.90;;;;;;5005787;28;20494;-68
2022/11/02 03:29:03;;;;;;;1.20;1.15;;;7.00;99.90;;;;;;5008044;28;20491;-68
2022/11/02 03:31:38;;;;;;;1.20;1.10;;;7.10;99.90;;;;;;5007158;28;20437;-68
2022/11/02 03:34:22;;;;;;;1.17;0.77;;;7.10;99.90;;;;;;5020283;28;20462;-68
2022/11/02 03:37:00;;;;;;;2.40;1.17;;;7.20;99.90;;;;;;5014495;28;20431;-69
2022/11/02 03:39:38;;;;;;;2.00;0.70;;;7.20;99.90;;;;;;5023958;28;20536;-69
2022/11/02 03:42:07;;;;;;;0.57;0.57;;;7.20;99.90;;;;;;5017264;28;20426;-68
2022/11/02 03:44:57;;;;;;;1.00;0.70;;;7.30;99.90;;;;;;5022742;28;20422;-68
2022/11/02 03:47:29;;;;;;;1.65;1.02;;;7.40;99.90;;;;;;5005295;28;20431;-68
2022/11/02 03:49:57;;;;;;;1.40;0.82;;;7.40;99.90;;;;;;5021898;28;20477;-69
2022/11/02 03:52:28;;;;;;;0.40;0.40;;;7.50;99.90;;;;;;5022070;28;20431;-68
2022/11/02 03:55:10;;;;;;;0.73;0.63;;;7.60;99.90;;;;;;5024298;28;20431;-68
2022/11/02 03:57:44;;;;;;;0.50;0.50;;;7.60;99.90;;;;;;5043663;28;20434;-68
2022/11/02 04:00:16;;;;;;;0.70;0.70;;;7.60;99.90;;;;;;5056104;28;20431;-68
2022/11/02 04:02:47;;;;;;;0.53;0.53;;;7.70;99.90;;;;;;5058828;28;20440;-69
2022/11/02 04:05:15;;;;;;;1.05;0.75;;;7.70;99.90;;;;;;5058693;28;20559;-68
2022/11/02 04:10:31;;;;;;;1.27;0.93;;;7.80;99.90;;;;;;5066237;28;20436;-68
2022/11/02 04:15:51;;;;;;;0.50;0.50;;;7.80;99.90;;;;;;5042709;28;20444;-68
2022/11/02 04:21:02;;;;;;;0.40;0.40;;;7.90;99.90;;;;;;5057345;28;20973;-69
2022/11/02 04:26:14;;;;;;;0.40;0.40;;;8.00;99.90;;;;;;5067637;28;20437;-68
2022/11/02 04:28:41;;;;;;;1.15;0.63;;;8.00;99.90;;;;;;5069590;28;20431;-69
2022/11/02 04:31:11;;;;;;;0.70;0.70;;;8.00;99.90;;;;;;5068234;28;20925;-68
2022/11/02 04:33:39;;;;;;;1.10;0.30;;;7.90;99.90;;;;;;5068109;28;20439;-69
2022/11/02 04:36:06;;;;;;;0.30;0.30;;;7.90;99.90;;;;;;5068270;28;20431;-68
2022/11/02 04:38:39;;;;;;;1.93;0.67;;;7.90;99.90;;;;;;5066271;28;20829;-69
2022/11/02 04:43:57;;;;;;;0.30;0.30;;;7.90;86.60;;;;;;5067224;28;20931;-68
2022/11/02 04:46:26;;;;;;;2.67;0.55;;;7.90;75.30;;;;;;5068314;28;20481;-68
2022/11/02 04:48:53;;;;;;;0.80;0.60;;;7.80;56.20;;;;;;5068007;28;20427;-68
2022/11/02 04:51:21;;;;;;;0.50;0.50;;;7.70;36.50;;;;;;5069224;28;20510;-68
2022/11/02 04:53:49;;;;;;;0.43;0.43;;;7.60;32.10;;;;;;5060607;28;20812;-68
2022/11/02 04:56:15;;;;;;;1.80;0.67;;;7.50;26.40;;;;;;5059992;28;20496;-69
2022/11/02 04:58:42;;;;;;;0.60;0.30;;;7.30;15.90;;;;;;5060778;28;20445;-68
2022/11/02 05:01:14;;;;;;;0.40;0.40;;;7.30;7.60;;;;;;5058621;28;20423;-69
2022/11/02 05:03:41;;;;;;;0.40;0.40;;;7.20;29.00;;;;;;5070223;28;20496;-69
2022/11/02 05:06:11;;;;;;;0.17;0.17;;;7.10;26.80;;;;;;5065251;28;20435;-69
2022/11/02 05:08:38;;;;;;;0.20;0.20;;;7.10;34.80;;;;;;5067836;28;20498;-68
2022/11/02 05:11:09;;;;;;;1.70;0.60;;;7.20;94.70;;;;;;5055252;28;20445;-69
2022/11/02 05:13:37;;;;;;;0.25;0.25;;;7.30;99.90;;;;;;5066022;28;20514;-69
2022/11/02 05:16:05;;;;;;;1.00;0.22;;;7.40;99.90;;;;;;5063867;28;20431;-69
2022/11/02 05:18:32;;;;;;;0.40;0.30;;;7.40;99.90;;;;;;5060388;28;20487;-68
2022/11/02 05:21:01;;;;;;;1.92;1.02;;;7.40;99.50;;;;;;5062800;28;20921;-68
2022/11/02 05:23:28;;;;;;;0.20;0.20;;;7.40;94.10;;;;;;5057154;28;20428;-69
2022/11/02 05:25:55;;;;;;;0.30;0.30;;;7.50;90.90;;;;;;5061099;28;20436;-69
2022/11/02 05:28:23;;;;;;;0.37;0.37;;;7.50;84.40;;;;;;5051022;28;20516;-69
2022/11/02 05:30:50;;;;;;;0.93;0.32;;;7.60;59.20;;;;;;5065696;28;20909;-69
2022/11/02 05:33:17;;;;;;;0.40;0.40;;;7.60;44.50;;;;;;5066442;28;20435;-69
2022/11/02 05:35:44;;;;;;;0.47;0.47;;;7.60;25.80;;;;;;5066467;28;20436;-69
2022/11/02 05:38:11;;;;;;;0.80;0.60;;;7.60;13.60;;;;;;5072356;28;20767;-69
2022/11/02 05:40:39;;;;;;;0.35;0.35;;;7.60;1.00;;;;;;5061272;28;20423;-71
2022/11/02 05:43:10;;;;;;;0.77;0.60;;;7.60;1.00;;;;;;5052309;28;20919;-69
2022/11/02 05:45:37;;;;;;;1.30;0.38;;;7.40;1.00;;;;;;5049022;28;20429;-69
2022/11/02 05:48:07;;;;;;;0.52;0.30;;;7.20;1.00;;;;;;5057723;28;20437;-69
2022/11/02 05:50:36;;;;;;;0.45;0.43;;;7.10;1.00;;;;;;5060586;28;22918;-69
2022/11/02 05:53:02;;;;;;;0.43;0.43;;;7.10;1.00;;;;;;5058687;28;20468;-69
2022/11/02 05:55:30;;;;;;;0.73;0.73;;;7.10;1.00;;;;;;5062794;28;20431;-69
2022/11/02 05:57:56;;;;;;;0.40;0.32;;;7.10;1.00;;;;;;5057881;28;20518;-69
2022/11/02 06:00:23;;;;;;;0.50;0.30;;;7.10;1.00;;;;;;5054215;28;20427;-69
2022/11/02 06:02:57;;;;;;;0.50;0.50;;;7.00;1.00;;;;;;5065550;28;20825;-69
2022/11/02 06:05:25;;;;;;;0.35;0.35;;;7.00;1.00;;;;;;5056127;28;20443;-69
2022/11/02 06:07:52;;;;;;;0.50;0.50;;;6.90;1.00;;;;;;5049625;28;20444;-69
2022/11/02 06:10:18;;;;;;;0.40;0.40;;;6.80;1.00;;;;;;5057559;28;20485;-69
2022/11/02 06:12:45;;;;;;;0.30;0.30;;;6.80;1.00;;;;;;5058972;28;20433;-69
2022/11/02 06:15:12;;;;;;;1.00;0.38;;;6.80;9.60;;;;;;5072958;28;20487;-69
2022/11/02 06:17:39;;;;;;;1.70;0.47;;;6.80;6.80;;;;;;5065693;28;20427;-69
2022/11/02 06:20:07;;;;;;;0.30;0.30;;;6.80;26.90;;;;;;5051509;28;20491;-69
2022/11/02 06:22:41;;;;;;;0.40;0.40;;;6.80;29.30;;;;;;5063351;28;20427;-69
2022/11/02 06:25:08;;;;;;;0.60;0.30;;;6.90;42.70;;;;;;5061556;28;20419;-69
2022/11/02 06:27:35;;;;;;;2.80;0.40;;;7.00;64.90;;;;;;5065703;28;20509;-69
2022/11/02 06:30:04;;;;;;;0.57;0.57;;;7.10;78.80;;;;;;5061150;28;20559;-69
2022/11/02 06:32:33;;;;;;;0.30;0.30;;;7.20;84.50;;;;;;5063179;28;20456;-69
2022/11/02 06:35:00;;;;;;;0.65;0.45;;;7.30;83.50;;;;;;5059323;28;20438;-69
2022/11/02 06:37:27;;;;;;;0.67;0.20;;;7.30;73.00;;;;;;5060337;28;20461;-70
2022/11/02 06:39:53;;;;;;;0.20;0.20;;;7.30;57.20;;;;;;5058301;28;20438;-69
2022/11/02 06:42:20;;;;;;;0.20;0.20;;;7.30;45.60;;;;;;5055444;28;20879;-70
2022/11/02 06:44:47;;;;;;;0.28;0.28;;;7.30;45.20;;;;;;5052425;28;20450;-70
2022/11/02 06:47:13;;;;;;;2.20;0.80;;;7.40;54.10;;;;;;5050557;28;21117;-69
2022/11/02 06:49:40;;;;;;;0.20;0.20;;;7.50;51.90;;;;;;5079455;28;21158;-70
2022/11/02 06:52:07;;;;;;;0.22;0.22;;;7.60;50.40;;;;;;5061187;28;20427;-69
2022/11/02 06:54:36;;;;;;;0.70;0.50;;;7.80;69.00;;;;;;5061240;28;20457;-70
2022/11/02 06:57:02;;;;;;;0.40;0.40;;;8.00;63.30;;;;;;5062126;28;20471;-69
2022/11/02 06:59:29;;;;;;;0.30;0.30;;;8.10;46.10;;;;;;5050689;28;20429;-69
2022/11/02 07:01:59;;;;;;;0.35;0.28;;;8.30;19.60;;;;;;5055811;28;20510;-69
2022/11/02 07:04:25;;;;;;;2.35;0.45;;;8.40;1.00;;;;;;5054336;28;20483;-69
2022/11/02 07:06:52;;;;;;;0.38;0.38;;;8.60;1.00;;;;;;5051197;28;20436;-69
2022/11/02 07:09:19;;;;;;;0.60;0.60;;;8.70;1.00;;;;;;5058737;28;20462;-70
2022/11/02 07:11:45;;;;;;;0.30;0.27;;;8.90;1.00;;;;;;5053104;28;20495;-70
2022/11/02 07:14:12;;;;;;;1.80;0.50;;;9.20;1.00;;;;;;5054640;28;20440;-70
2022/11/02 07:16:39;;;;;;;0.30;0.30;;;9.50;99.90;;;;;;5053119;28;20789;-70
2022/11/02 07:19:06;;;;;;;1.15;0.65;;;9.70;1.00;;;;;;5054855;28;20432;-70
2022/11/02 07:21:32;;;;;;;0.35;0.35;;;10.00;1.00;;;;;;5057797;28;20462;-70
2022/11/02 07:23:59;;;;;;;0.25;0.25;;;10.30;99.90;;;;;;5048344;28;20424;-70
2022/11/02 07:26:27;;;;;;;0.43;0.43;;;10.60;1.00;;;;;;5054340;28;21367;-70
2022/11/02 07:28:54;;;;;;;0.20;0.20;;;10.90;1.00;;;;;;5049001;28;20429;-70
2022/11/02 07:31:24;;;;;;;1.50;0.32;;;11.10;1.00;;;;;;5056478;28;20438;-70
2022/11/02 07:33:53;;;;;;;0.32;0.32;;;11.30;99.90;;;;;;5057368;28;20427;-70
2022/11/02 07:36:19;;;;;;;0.20;0.20;;;11.50;99.90;;;;;;5053640;28;20434;-70
2022/11/02 07:38:47;;;;;;;1.70;0.50;;;11.70;99.90;;;;;;5052102;28;20440;-70
2022/11/02 07:41:16;;;;;;;1.40;0.50;;;11.90;1.00;;;;;;5075264;28;20423;-70
2022/11/02 07:43:43;;;;;;;0.70;0.40;;;12.00;1.00;;;;;;5050238;28;20428;-71
2022/11/02 07:46:10;;;;;;;2.42;0.30;;;12.10;1.00;;;;;;5044372;28;20429;-70
2022/11/02 07:48:37;;;;;;;0.43;0.43;;;12.20;1.00;;;;;;5048417;28;20961;-70
2022/11/02 07:51:05;;;;;;;0.38;0.38;;;12.30;1.00;;;;;;5062222;28;20434;-70
2022/11/02 07:53:33;;;;;;;0.45;0.45;;;12.30;1.00;;;;;;5058486;28;20424;-70
2022/11/02 07:56:00;;;;;;;0.50;0.50;;;12.30;1.00;;;;;;5071713;28;20438;-70
2022/11/02 07:58:27;;;;;;;0.40;0.22;;;12.30;1.00;;;;;;5062846;28;20440;-70
2022/11/02 08:00:57;;;;;;;0.50;0.50;;;12.30;1.00;;;;;;5054877;28;20427;-70
2022/11/02 08:03:27;;;;;;;0.80;0.60;;;12.60;1.00;;;;;;5053679;28;20430;-70
2022/11/02 08:05:54;;;;;;;0.27;0.27;;;12.80;1.00;;;;;;5058136;28;20431;-70
2022/11/02 08:08:23;;;;;;;0.60;0.60;;;13.00;1.00;;;;;;5054128;28;20459;-70
2022/11/02 08:10:51;;;;;;;0.90;0.52;;;13.10;1.00;;;;;;5056796;28;20481;-69
2022/11/02 08:13:20;;;;;;;2.85;0.63;;;13.20;1.00;;;;;;5061502;28;20437;-70
2022/11/02 08:15:51;;;;;;;1.70;0.50;;;13.30;99.90;;;;;;5066099;28;20459;-70
2022/11/02 08:18:23;;;;;;;1.45;0.40;;;13.50;99.90;;;;;;5060548;28;21164;-70
2022/11/02 08:20:50;;;;;;;0.98;0.55;;;13.60;99.90;;;;;;5051554;28;20419;-70
2022/11/02 08:23:18;;;;;;;0.55;0.50;;;13.70;99.90;;;;;;5059479;28;20427;-70
2022/11/02 08:25:47;;;;;;;0.40;0.40;;;13.70;99.90;;;;;;5063188;28;21577;-70
2022/11/02 08:28:16;;;;;;;0.80;0.32;;;13.70;99.90;;;;;;5056416;28;20562;-70
2022/11/02 08:30:43;;;;;;;0.33;0.33;;;13.70;99.90;;;;;;5066644;28;20439;-70
2022/11/02 08:33:12;;;;;;;1.40;0.50;;;13.70;99.90;;;;;;5065985;28;20492;-69
2022/11/02 08:35:39;;;;;;;1.20;0.30;;;13.80;99.90;;;;;;5064586;28;20488;-70
2022/11/02 08:38:08;;;;;;;0.40;0.20;;;13.90;99.90;;;;;;5056769;28;20436;-70
2022/11/02 08:40:36;;;;;;;1.00;0.40;;;13.90;99.90;;;;;;5062575;28;20486;-70
2022/11/02 08:43:08;;;;;;;0.88;0.35;;;14.00;99.90;;;;;;5064321;28;20419;-69
2022/11/02 08:45:37;;;;;;;3.77;0.33;;;13.90;99.90;;;;;;5054907;28;20427;-69
2022/11/02 08:48:24;;;;;;;2.30;0.60;;;14.00;99.90;;;;;;5057943;28;20963;-70
2022/11/02 08:50:55;;;;;;;0.30;0.30;;;14.30;99.90;;;;;;5069223;28;20428;-70
2022/11/02 08:53:22;;;;;;;1.50;0.38;;;14.60;99.90;;;;;;5051959;28;20461;-70
2022/11/02 08:55:48;;;;;;;0.30;0.30;;;14.50;99.90;;;;;;5068027;28;20461;-70
2022/11/02 08:58:15;;;;;;;0.35;0.35;;;14.50;99.90;;;;;;5055698;28;20440;-70
2022/11/02 09:00:42;;;;;;;4.70;0.50;;;14.70;99.90;;;;;;5062393;28;20965;-70
2022/11/02 09:03:13;;;;;;;3.53;0.30;;;14.70;99.90;;;;;;5060175;28;20436;-70
2022/11/02 09:05:42;;;;;;;0.40;0.30;;;14.80;99.90;;;;;;5059153;28;20428;-70
2022/11/02 09:08:16;;;;;;;0.67;0.53;;;14.90;99.90;;;;;;5083767;28;20495;-70
2022/11/02 09:10:45;;;;;;;0.90;0.25;;;15.00;99.90;;;;;;5065542;28;20936;-70
2022/11/02 09:13:13;;;;;;;2.03;0.37;;;15.10;99.90;;;;;;5057379;28;20773;-67
2022/11/02 09:15:40;;;;;;;0.80;0.30;;;15.20;99.90;;;;;;5058453;28;20437;-67
2022/11/02 09:18:08;;;;;;;0.28;0.28;;;15.20;99.90;;;;;;5062094;28;20485;-70
2022/11/02 09:20:35;;;;;;;1.85;0.40;;;15.50;99.90;;;;;;5063895;28;20450;-70
2022/11/02 09:23:02;;;;;;;2.40;0.60;;;15.60;99.90;;;;;;5050875;28;20429;-68
2022/11/02 09:25:29;;;;;;;0.50;0.30;;;15.80;99.90;;;;;;5051257;28;20907;-69
2022/11/02 09:27:56;;;;;;;0.30;0.30;;;16.10;99.90;;;;;;5054840;28;20448;-68
2022/11/02 09:30:27;;;;;;;0.30;0.30;;;16.10;99.90;;;;;;5063703;28;20652;-68
2022/11/02 09:32:54;;;;;;;0.90;0.60;;;16.20;99.90;;;;;;5053519;28;20794;-69
2022/11/02 09:35:21;;;;;;;0.80;0.30;;;16.00;99.90;;;;;;5059875;28;20431;-69
2022/11/02 09:37:48;;;;;;;2.10;0.30;;;16.00;99.90;;;;;;5053799;28;20538;-69
2022/11/02 09:40:22;;;;;;;0.38;0.38;;;16.00;99.90;;;;;;5060587;28;20428;-69
2022/11/02 09:43:22;;;;;;;0.80;0.52;;;16.20;99.90;;;;;;5067031;28;20431;-69
2022/11/02 09:45:57;;;;;;;0.60;0.38;;;16.30;99.90;;;;;;5055874;28;20466;-69
2022/11/02 09:48:43;;;;;;;2.10;0.40;;;16.20;99.90;;;;;;5057112;28;20449;-69
2022/11/02 09:51:24;;;;;;;0.90;0.50;;;16.40;99.90;;;;;;5064438;28;20469;-69
2022/11/02 09:54:15;;;;;;;1.20;0.57;;;16.30;99.90;;;;;;5061473;28;20444;-70
2022/11/02 09:56:45;;;;;;;1.42;0.47;;;16.60;99.90;;;;;;5057023;28;20532;-67
2022/11/02 09:59:18;;;;;;;0.60;0.50;;;16.70;99.90;;;;;;5060704;28;20517;-66
2022/11/02 10:02:12;;;;;;;1.10;0.50;;;16.90;99.90;;;;;;5066832;28;20431;-67
2022/11/02 10:04:45;;;;;;;0.60;0.60;;;17.00;99.90;;;;;;5050828;28;20422;-67
2022/11/02 10:07:14;;;;;;;0.70;0.40;;;17.10;99.90;;;;;;5058428;28;20481;-68
2022/11/02 10:09:56;;;;;;;0.40;0.40;;;17.00;99.90;;;;;;5076052;28;20427;-68
2022/11/02 10:12:33;;;;;;;0.73;0.30;;;17.00;99.90;;;;;;5066366;28;20535;-67
2022/11/02 10:15:19;;;;;;;1.80;0.50;;;16.90;99.90;;;;;;5055127;28;20784;-68
2022/11/02 10:17:49;;;;;;;2.40;0.70;;;16.90;99.90;;;;;;5049165;28;20433;-68
2022/11/02 10:20:26;;;;;;;0.43;0.40;;;17.20;99.90;;;;;;5066756;28;20435;-68
2022/11/02 10:23:02;;;;;;;3.30;0.65;;;17.20;99.90;;;;;;5055816;28;20443;-69
2022/11/02 10:25:29;;;;;;;1.23;0.50;;;17.80;99.90;;;;;;5060514;28;20466;-68
2022/11/02 10:28:08;;;;;;;0.52;0.52;;;18.30;99.90;;;;;;5060067;28;20443;-68
2022/11/02 10:30:36;;;;;;;1.98;0.40;;;18.30;99.90;;;;;;5054904;28;20439;-68
2022/11/02 10:33:12;;;;;;;1.17;0.45;;;18.10;99.90;;;;;;5053067;28;20428;-69
2022/11/02 10:35:49;;;;;;;0.40;0.30;;;17.90;99.90;;;;;;5060360;28;20437;-68
2022/11/02 10:39:02;;;;;;;1.20;0.45;;;17.00;99.90;;;;;;5051935;28;20920;-68
2022/11/02 10:41:58;;;;;;;0.20;0.20;;;16.30;99.90;;;;;;5054395;28;20954;-68
2022/11/02 10:44:36;;;;;;;0.45;0.40;;;15.70;99.90;;;;;;5051371;28;20462;-68
2022/11/02 10:47:17;;;;;;;2.40;0.50;;;15.70;99.90;;;;;;5062785;28;20446;-67
2022/11/02 10:50:03;;;;;;;0.75;0.45;;;16.50;99.90;;;;;;5058560;28;20431;-68
2022/11/02 10:52:39;;;;;;;0.50;0.50;;;17.80;99.90;;;;;;5058310;28;20452;-67
2022/11/02 10:55:16;;;;;;;0.20;0.20;;;18.90;99.90;;;;;;5059305;28;20962;-67
2022/11/02 10:57:42;;;;;;;1.77;0.40;;;19.60;99.90;;;;;;5055646;28;20437;-68
2022/11/02 11:00:33;;;;;;;0.35;0.35;;;19.90;99.90;;;;;;5056535;28;20439;-66
2022/11/02 11:03:04;;;;;;;0.20;0.20;;;20.00;99.90;;;;;;5065373;28;20423;-68
2022/11/02 11:05:32;;;;;;;1.30;0.50;;;20.10;99.90;;;;;;5052136;28;20433;-68
2022/11/02 11:08:01;;;;;;;0.77;0.40;;;20.10;99.90;;;;;;5056121;28;20968;-67
2022/11/02 11:10:35;;;;;;;0.90;0.43;;;19.80;99.90;;;;;;5059479;28;20843;-68
2022/11/02 11:13:02;;;;;;;1.90;0.40;;;19.70;99.90;;;;;;5055576;28;20427;-67
2022/11/02 11:15:33;;;;;;;0.40;0.40;;;19.10;99.90;;;;;;5053641;28;20435;-70
2022/11/02 11:18:18;;;;;;;0.70;0.43;;;18.40;99.90;;;;;;5053038;28;20432;-69
2022/11/02 11:21:06;;;;;;;0.40;0.40;;;18.10;99.90;;;;;;5058518;28;20946;-70
2022/11/02 11:23:33;;;;;;;1.00;0.50;;;18.10;99.90;;;;;;5061041;28;20428;-70
2022/11/02 11:26:02;;;;;;;0.93;0.50;;;18.10;99.90;;;;;;5055741;28;20469;-70
2022/11/02 11:28:51;;;;;;;0.80;0.40;;;18.40;99.90;;;;;;5048250;28;20441;-70
2022/11/02 11:31:18;;;;;;;0.40;0.40;;;18.00;99.90;;;;;;5060026;28;20486;-70
2022/11/02 11:33:50;;;;;;;0.35;0.32;;;17.20;99.90;;;;;;5065110;28;20437;-70
2022/11/02 11:36:29;;;;;;;0.35;0.35;;;16.70;99.90;;;;;;5068028;28;20427;-70
2022/11/02 11:39:22;;;;;;;1.00;0.40;;;17.10;99.90;;;;;;5055505;28;20523;-70
2022/11/02 11:41:49;;;;;;;0.20;0.20;;;17.10;99.90;;;;;;5058409;28;20431;-70
2022/11/02 11:44:16;;;;;;;0.70;0.40;;;16.60;99.90;;;;;;5057200;28;20913;-70
2022/11/02 11:46:45;;;;;;;0.43;0.43;;;16.10;99.90;;;;;;5069033;28;20434;-69
2022/11/02 11:49:32;;;;;;;0.40;0.40;;;15.80;99.90;;;;;;5069803;28;20432;-70
2022/11/02 11:52:26;;;;;;;0.20;0.20;;;16.00;99.90;;;;;;5065893;28;20809;-70
2022/11/02 11:55:00;;;;;;;1.80;0.38;;;16.60;99.90;;;;;;5062862;28;20451;-69
2022/11/02 11:57:33;;;;;;;0.20;0.20;;;16.60;99.90;;;;;;5071097;28;20457;-70
2022/11/02 12:00:24;;;;;;;0.30;0.30;;;16.80;99.90;;;;;;5068611;28;20445;-69
2022/11/02 12:03:06;;;;;;;0.70;0.30;;;17.50;99.90;;;;;;5066161;28;20437;-69
2022/11/02 12:05:36;;;;;;;0.32;0.32;;;18.10;99.90;;;;;;5058632;28;20509;-69
2022/11/02 12:08:09;;;;;;;0.50;0.30;;;18.00;99.90;;;;;;5065292;28;20432;-70
2022/11/02 12:10:58;;;;;;;2.10;0.40;;;18.10;99.90;;;;;;5068211;28;20932;-67
2022/11/02 12:13:44;;;;;;;0.40;0.30;;;17.80;99.90;;;;;;5069071;28;20434;-67
2022/11/02 12:16:29;;;;;;;1.92;0.35;;;17.90;99.90;;;;;;5067846;28;20427;-68
2022/11/02 12:19:29;;;;;;;1.67;0.40;;;18.20;99.90;;;;;;5068603;28;20798;-68
2022/11/02 12:22:21;;;;;;;1.65;0.45;;;18.40;99.90;;;;;;5086740;28;20427;-68
2022/11/02 12:24:51;;;;;;;0.77;0.52;;;18.80;99.90;;;;;;5071241;28;20423;-68
2022/11/02 12:28:02;;;;;;;1.85;0.70;;;18.60;99.90;;;;;;5069761;28;20432;-68
2022/11/02 12:31:05;;;;;;;1.30;0.40;;;18.50;99.90;;;;;;5060060;28;20425;-68
2022/11/02 12:33:40;;;;;;;0.80;0.30;;;18.40;99.90;;;;;;5062489;28;20431;-69
2022/11/02 12:36:29;;;;;;;0.40;0.40;;;18.60;99.90;;;;;;5070450;28;20434;-69
2022/11/02 12:39:02;;;;;;;1.10;0.30;;;18.30;99.90;;;;;;5062917;28;20442;-69
2022/11/02 12:41:54;;;;;;;0.30;0.30;;;18.00;99.90;;;;;;5057793;28;20425;-69
2022/11/02 12:44:50;;;;;;;0.20;0.20;;;18.40;99.90;;;;;;5068471;28;20427;-68
2022/11/02 12:47:32;;;;;;;2.70;0.30;;;18.20;99.90;;;;;;5067409;28;20481;-68
2022/11/02 12:50:11;;;;;;;0.40;0.40;;;18.20;99.90;;;;;;5064657;28;20526;-69
2022/11/02 12:53:00;;;;;;;0.60;0.38;;;17.80;99.90;;;;;;5051317;28;20463;-69
2022/11/02 12:55:38;;;;;;;0.40;0.40;;;17.50;99.90;;;;;;5053592;28;20435;-69
2022/11/02 12:58:14;;;;;;;0.10;0.10;;;17.90;99.90;;;;;;5054039;28;20432;-69
2022/11/02 13:00:44;;;;;;;0.30;0.30;;;18.20;99.90;;;;;;5059537;28;20432;-69
2022/11/02 13:03:38;;;;;;;0.20;0.20;;;18.30;99.90;;;;;;5067577;28;20423;-68
2022/11/02 13:06:11;;;;;;;2.50;0.60;;;18.40;99.90;;;;;;5061071;28;20491;-69
2022/11/02 13:08:47;;;;;;;0.43;0.43;;;18.90;99.90;;;;;;5066687;28;20427;-69
2022/11/02 13:11:30;;;;;;;0.40;0.30;;;19.40;99.90;;;;;;5053560;28;20433;-69
2022/11/02 13:13:58;;;;;;;0.50;0.30;;;19.00;99.90;;;;;;5057629;28;20435;-69
2022/11/02 13:16:43;;;;;;;0.32;0.32;;;18.70;99.90;;;;;;5068868;28;20445;-69
2022/11/02 13:19:38;;;;;;;0.40;0.30;;;18.30;99.90;;;;;;5064758;28;20448;-68
2022/11/02 13:22:17;;;;;;;1.20;0.30;;;17.90;99.90;;;;;;5067844;28;20431;-69
2022/11/02 13:24:48;;;;;;;0.60;0.38;;;17.60;99.90;;;;;;5052779;28;20437;-69
2022/11/02 13:27:38;;;;;;;1.20;0.50;;;16.90;99.90;;;;;;5050974;28;20483;-69
2022/11/02 13:30:14;;;;;;;0.70;0.30;;;16.60;99.90;;;;;;5057298;28;20427;-70
2022/11/02 13:32:55;;;;;;;0.60;0.40;;;16.20;99.90;;;;;;5070267;28;20434;-68
2022/11/02 13:35:34;;;;;;;1.05;0.40;;;15.80;99.90;;;;;;5062197;28;20435;-69
2022/11/02 13:38:43;;;;;;;1.90;0.47;;;15.60;99.90;;;;;;5061823;28;20437;-69